sensor_id;sensor_type;location;lat;lon;timestamp;temperature;humidity
50758;DHT22;36732;47.980;11.652;2024-03-23T00:56:04;12.80;60.00
50758;DHT22;36732;47.980;11.652;2024-03-23T00:58:30;12.80;60.00
50758;DHT22;36732;47.980;11.652;2024-03-23T01:00:56;12.80;60.00
50758;DHT22;36732;47.980;11.652;2024-03-23T01:03:21;12.80;60.00
50758;DHT22;36732;47.980;11.652;2024-03-23T01:05:47;12.80;60.00
50758;DHT22;36732;47.980;11.652;2024-03-23T01:08:14;12.80;60.00
50758;DHT22;36732;47.980;11.652;2024-03-23T01:10:40;12.70;59.90
50758;DHT22;36732;47.980;11.652;2024-03-23T01:13:06;12.70;59.90
50758;DHT22;36732;47.980;11.652;2024-03-23T01:15:31;12.70;59.80
50758;DHT22;36732;47.980;11.652;2024-03-23T01:17:57;12.70;59.80
50758;DHT22;36732;47.980;11.652;2024-03-23T01:20:23;12.70;59.80
50758;DHT22;36732;47.980;11.652;2024-03-23T01:22:48;12.70;59.80
50758;DHT22;36732;47.980;11.652;2024-03-23T01:25:14;12.70;59.80
50758;DHT22;36732;47.980;11.652;2024-03-23T01:27:40;12.70;59.80
50758;DHT22;36732;47.980;11.652;2024-03-23T01:30:06;12.60;59.70
50758;DHT22;36732;47.980;11.652;2024-03-23T01:32:33;12.60;59.70
50758;DHT22;36732;47.980;11.652;2024-03-23T01:34:58;12.60;59.70
50758;DHT22;36732;47.980;11.652;2024-03-23T01:37:24;12.60;59.70
50758;DHT22;36732;47.980;11.652;2024-03-23T01:39:49;12.60;59.70
50758;DHT22;36732;47.980;11.652;2024-03-23T01:42:16;12.60;59.60
50758;DHT22;36732;47.980;11.652;2024-03-23T01:44:41;12.60;59.60
50758;DHT22;36732;47.980;11.652;2024-03-23T01:47:07;12.60;59.60
50758;DHT22;36732;47.980;11.652;2024-03-23T01:49:33;12.60;59.60
50758;DHT22;36732;47.980;11.652;2024-03-23T01:51:59;12.60;59.70
50758;DHT22;36732;47.980;11.652;2024-03-23T01:54:25;12.60;59.80
50758;DHT22;36732;47.980;11.652;2024-03-23T01:56:51;12.50;59.80
50758;DHT22;36732;47.980;11.652;2024-03-23T01:59:17;12.60;59.90
50758;DHT22;36732;47.980;11.652;2024-03-23T02:01:43;12.60;59.80
50758;DHT22;36732;47.980;11.652;2024-03-23T02:04:08;12.60;59.90
50758;DHT22;36732;47.980;11.652;2024-03-23T02:06:35;12.50;59.80
50758;DHT22;36732;47.980;11.652;2024-03-23T02:09:00;12.60;59.80
50758;DHT22;36732;47.980;11.652;2024-03-23T02:11:26;12.60;59.90
50758;DHT22;36732;47.980;11.652;2024-03-23T02:13:52;12.60;59.80
50758;DHT22;36732;47.980;11.652;2024-03-23T02:16:18;12.60;59.90
50758;DHT22;36732;47.980;11.652;2024-03-23T02:18:44;12.60;59.90
50758;DHT22;36732;47.980;11.652;2024-03-23T02:21:09;12.60;59.70
50758;DHT22;36732;47.980;11.652;2024-03-23T02:23:35;12.60;59.70
50758;DHT22;36732;47.980;11.652;2024-03-23T02:26:01;12.60;59.40
50758;DHT22;36732;47.980;11.652;2024-03-23T02:28:26;12.60;59.40
50758;DHT22;36732;47.980;11.652;2024-03-23T02:30:52;12.60;59.20
50758;DHT22;36732;47.980;11.652;2024-03-23T02:33:18;12.60;59.30
50758;DHT22;36732;47.980;11.652;2024-03-23T02:35:44;12.60;59.10
50758;DHT22;36732;47.980;11.652;2024-03-23T02:38:11;12.60;59.10
50758;DHT22;36732;47.980;11.652;2024-03-23T02:40:37;12.50;58.90
50758;DHT22;36732;47.980;11.652;2024-03-23T02:43:03;12.50;59.00
50758;DHT22;36732;47.980;11.652;2024-03-23T02:45:29;12.50;59.10
50758;DHT22;36732;47.980;11.652;2024-03-23T02:47:55;12.50;59.00
50758;DHT22;36732;47.980;11.652;2024-03-23T02:50:21;12.50;59.10
50758;DHT22;36732;47.980;11.652;2024-03-23T02:52:47;12.50;59.10
50758;DHT22;36732;47.980;11.652;2024-03-23T02:55:13;12.50;59.10
50758;DHT22;36732;47.980;11.652;2024-03-23T02:57:39;12.40;59.10
50758;DHT22;36732;47.980;11.652;2024-03-23T03:00:06;12.40;59.10
50758;DHT22;36732;47.980;11.652;2024-03-23T03:02:32;12.40;59.20
50758;DHT22;36732;47.980;11.652;2024-03-23T03:04:58;12.40;59.20
50758;DHT22;36732;47.980;11.652;2024-03-23T03:07:24;12.40;59.10
50758;DHT22;36732;47.980;11.652;2024-03-23T03:09:50;12.40;59.10
50758;DHT22;36732;47.980;11.652;2024-03-23T03:12:15;12.40;59.10
50758;DHT22;36732;47.980;11.652;2024-03-23T03:14:41;12.40;59.10
50758;DHT22;36732;47.980;11.652;2024-03-23T03:17:07;12.50;59.80
50758;DHT22;36732;47.980;11.652;2024-03-23T03:19:33;12.40;59.00
50758;DHT22;36732;47.980;11.652;2024-03-23T03:21:59;12.40;59.10
50758;DHT22;36732;47.980;11.652;2024-03-23T03:24:24;12.40;59.10
50758;DHT22;36732;47.980;11.652;2024-03-23T03:26:50;12.40;59.00
50758;DHT22;36732;47.980;11.652;2024-03-23T03:29:16;12.40;59.10
50758;DHT22;36732;47.980;11.652;2024-03-23T03:31:43;12.40;59.60
50758;DHT22;36732;47.980;11.652;2024-03-23T03:34:09;12.40;59.00
50758;DHT22;36732;47.980;11.652;2024-03-23T03:36:34;12.40;59.00
50758;DHT22;36732;47.980;11.652;2024-03-23T03:39:00;12.40;58.90
50758;DHT22;36732;47.980;11.652;2024-03-23T03:41:28;12.40;58.90
50758;DHT22;36732;47.980;11.652;2024-03-23T03:43:53;12.40;58.90
50758;DHT22;36732;47.980;11.652;2024-03-23T03:46:20;12.40;58.90
50758;DHT22;36732;47.980;11.652;2024-03-23T03:48:46;12.40;58.90
50758;DHT22;36732;47.980;11.652;2024-03-23T03:51:13;12.40;58.80
50758;DHT22;36732;47.980;11.652;2024-03-23T03:53:39;12.40;58.80
50758;DHT22;36732;47.980;11.652;2024-03-23T03:56:05;12.40;58.80
50758;DHT22;36732;47.980;11.652;2024-03-23T03:58:31;12.40;58.70
50758;DHT22;36732;47.980;11.652;2024-03-23T04:00:56;12.30;58.60
50758;DHT22;36732;47.980;11.652;2024-03-23T04:03:22;12.30;58.60
50758;DHT22;36732;47.980;11.652;2024-03-23T04:05:54;12.30;58.60
50758;DHT22;36732;47.980;11.652;2024-03-23T04:08:20;12.30;58.30
50758;DHT22;36732;47.980;11.652;2024-03-23T04:10:46;12.30;58.50
50758;DHT22;36732;47.980;11.652;2024-03-23T04:13:13;12.30;58.50
50758;DHT22;36732;47.980;11.652;2024-03-23T04:15:39;12.30;58.50
50758;DHT22;36732;47.980;11.652;2024-03-23T04:18:05;12.30;58.50
50758;DHT22;36732;47.980;11.652;2024-03-23T04:20:31;12.30;58.50
50758;DHT22;36732;47.980;11.652;2024-03-23T04:22:58;12.30;58.40
50758;DHT22;36732;47.980;11.652;2024-03-23T04:25:26;12.20;58.30
50758;DHT22;36732;47.980;11.652;2024-03-23T04:27:52;12.20;58.40
50758;DHT22;36732;47.980;11.652;2024-03-23T04:30:18;12.20;58.20
50758;DHT22;36732;47.980;11.652;2024-03-23T04:32:44;12.20;58.20
50758;DHT22;36732;47.980;11.652;2024-03-23T04:35:10;12.20;58.30
50758;DHT22;36732;47.980;11.652;2024-03-23T04:37:39;12.20;58.20
50758;DHT22;36732;47.980;11.652;2024-03-23T04:40:08;12.20;58.20
50758;DHT22;36732;47.980;11.652;2024-03-23T04:42:34;12.20;58.20
50758;DHT22;36732;47.980;11.652;2024-03-23T04:45:00;12.10;58.10
50758;DHT22;36732;47.980;11.652;2024-03-23T04:47:26;12.10;58.10
50758;DHT22;36732;47.980;11.652;2024-03-23T04:49:52;12.10;58.00
50758;DHT22;36732;47.980;11.652;2024-03-23T04:52:18;12.10;58.00
50758;DHT22;36732;47.980;11.652;2024-03-23T04:54:44;12.10;58.00
50758;DHT22;36732;47.980;11.652;2024-03-23T04:57:11;12.10;58.00
50758;DHT22;36732;47.980;11.652;2024-03-23T04:59:36;12.10;58.00
50758;DHT22;36732;47.980;11.652;2024-03-23T05:02:02;12.10;57.90
50758;DHT22;36732;47.980;11.652;2024-03-23T05:04:28;12.10;58.00
50758;DHT22;36732;47.980;11.652;2024-03-23T05:06:54;12.10;57.80
50758;DHT22;36732;47.980;11.652;2024-03-23T05:09:19;12.10;57.80
50758;DHT22;36732;47.980;11.652;2024-03-23T05:11:45;12.00;57.70
50758;DHT22;36732;47.980;11.652;2024-03-23T05:14:13;12.10;57.70
50758;DHT22;36732;47.980;11.652;2024-03-23T05:16:39;12.00;57.60
50758;DHT22;36732;47.980;11.652;2024-03-23T05:19:05;12.00;57.70
50758;DHT22;36732;47.980;11.652;2024-03-23T05:21:31;12.00;57.70
50758;DHT22;36732;47.980;11.652;2024-03-23T05:23:56;12.00;57.70
50758;DHT22;36732;47.980;11.652;2024-03-23T05:26:22;12.00;57.70
50758;DHT22;36732;47.980;11.652;2024-03-23T05:28:48;12.00;57.70
50758;DHT22;36732;47.980;11.652;2024-03-23T05:31:25;12.00;57.60
50758;DHT22;36732;47.980;11.652;2024-03-23T05:33:52;12.00;57.50
50758;DHT22;36732;47.980;11.652;2024-03-23T05:36:18;12.00;57.70
50758;DHT22;36732;47.980;11.652;2024-03-23T05:38:44;11.90;57.60
50758;DHT22;36732;47.980;11.652;2024-03-23T05:41:09;12.00;57.70
50758;DHT22;36732;47.980;11.652;2024-03-23T05:43:35;12.00;57.60
50758;DHT22;36732;47.980;11.652;2024-03-23T05:46:01;12.00;57.60
50758;DHT22;36732;47.980;11.652;2024-03-23T05:48:27;12.00;57.60
50758;DHT22;36732;47.980;11.652;2024-03-23T05:50:53;12.00;57.60
50758;DHT22;36732;47.980;11.652;2024-03-23T05:53:20;12.00;57.70
50758;DHT22;36732;47.980;11.652;2024-03-23T05:55:46;11.90;57.70
50758;DHT22;36732;47.980;11.652;2024-03-23T05:58:14;12.00;57.90
50758;DHT22;36732;47.980;11.652;2024-03-23T06:00:40;12.00;57.90
50758;DHT22;36732;47.980;11.652;2024-03-23T06:03:07;12.00;58.00
50758;DHT22;36732;47.980;11.652;2024-03-23T06:05:33;12.00;58.00
50758;DHT22;36732;47.980;11.652;2024-03-23T06:07:59;12.00;58.10
50758;DHT22;36732;47.980;11.652;2024-03-23T06:10:25;12.00;58.20
50758;DHT22;36732;47.980;11.652;2024-03-23T06:12:50;12.00;58.30
50758;DHT22;36732;47.980;11.652;2024-03-23T06:15:18;12.00;58.40
50758;DHT22;36732;47.980;11.652;2024-03-23T06:17:44;12.00;58.40
50758;DHT22;36732;47.980;11.652;2024-03-23T06:20:10;12.00;58.60
50758;DHT22;36732;47.980;11.652;2024-03-23T06:22:36;12.00;58.60
50758;DHT22;36732;47.980;11.652;2024-03-23T06:25:02;12.00;58.90
50758;DHT22;36732;47.980;11.652;2024-03-23T06:27:28;12.00;58.90
50758;DHT22;36732;47.980;11.652;2024-03-23T06:29:54;12.00;59.10
50758;DHT22;36732;47.980;11.652;2024-03-23T06:32:20;12.00;59.20
50758;DHT22;36732;47.980;11.652;2024-03-23T06:34:46;12.00;59.40
50758;DHT22;36732;47.980;11.652;2024-03-23T06:37:12;12.00;59.50
50758;DHT22;36732;47.980;11.652;2024-03-23T06:39:38;12.00;59.70
50758;DHT22;36732;47.980;11.652;2024-03-23T06:42:04;12.00;59.60
50758;DHT22;36732;47.980;11.652;2024-03-23T06:44:30;12.00;59.50
50758;DHT22;36732;47.980;11.652;2024-03-23T06:46:56;12.10;59.50
50758;DHT22;36732;47.980;11.652;2024-03-23T06:49:23;12.10;59.50
50758;DHT22;36732;47.980;11.652;2024-03-23T06:51:49;12.10;59.50
50758;DHT22;36732;47.980;11.652;2024-03-23T06:54:16;12.10;59.30
50758;DHT22;36732;47.980;11.652;2024-03-23T06:56:43;12.10;59.30
50758;DHT22;36732;47.980;11.652;2024-03-23T06:59:09;12.20;59.20
50758;DHT22;36732;47.980;11.652;2024-03-23T07:01:35;12.20;59.20
50758;DHT22;36732;47.980;11.652;2024-03-23T07:04:01;12.20;59.20
50758;DHT22;36732;47.980;11.652;2024-03-23T07:06:27;12.20;59.20
50758;DHT22;36732;47.980;11.652;2024-03-23T07:08:53;12.20;59.20
50758;DHT22;36732;47.980;11.652;2024-03-23T07:11:20;12.30;59.30
50758;DHT22;36732;47.980;11.652;2024-03-23T07:13:46;12.30;59.20
50758;DHT22;36732;47.980;11.652;2024-03-23T07:16:14;12.30;59.20
50758;DHT22;36732;47.980;11.652;2024-03-23T07:18:41;12.30;59.20
50758;DHT22;36732;47.980;11.652;2024-03-23T07:21:07;12.40;59.30
50758;DHT22;36732;47.980;11.652;2024-03-23T07:23:33;12.40;59.20
50758;DHT22;36732;47.980;11.652;2024-03-23T07:26:02;12.40;59.20
50758;DHT22;36732;47.980;11.652;2024-03-23T07:28:33;12.50;59.20
50758;DHT22;36732;47.980;11.652;2024-03-23T07:31:11;12.50;59.20
50758;DHT22;36732;47.980;11.652;2024-03-23T07:33:41;12.50;59.00
50758;DHT22;36732;47.980;11.652;2024-03-23T07:36:11;12.60;59.30
50758;DHT22;36732;47.980;11.652;2024-03-23T07:38:37;12.60;59.20
50758;DHT22;36732;47.980;11.652;2024-03-23T07:41:06;12.60;59.20
50758;DHT22;36732;47.980;11.652;2024-03-23T07:43:34;12.60;59.10
50758;DHT22;36732;47.980;11.652;2024-03-23T07:46:03;12.70;59.30
50758;DHT22;36732;47.980;11.652;2024-03-23T07:48:29;12.70;59.30
50758;DHT22;36732;47.980;11.652;2024-03-23T07:51:00;12.70;59.30
50758;DHT22;36732;47.980;11.652;2024-03-23T07:53:26;12.70;59.30
50758;DHT22;36732;47.980;11.652;2024-03-23T07:55:57;12.80;59.40
50758;DHT22;36732;47.980;11.652;2024-03-23T07:58:24;12.80;59.50
50758;DHT22;36732;47.980;11.652;2024-03-23T08:00:50;12.80;59.40
50758;DHT22;36732;47.980;11.652;2024-03-23T08:03:16;12.80;59.50
50758;DHT22;36732;47.980;11.652;2024-03-23T08:05:42;12.80;59.50
50758;DHT22;36732;47.980;11.652;2024-03-23T08:08:08;12.90;59.60
50758;DHT22;36732;47.980;11.652;2024-03-23T08:10:33;12.90;59.80
50758;DHT22;36732;47.980;11.652;2024-03-23T08:13:00;12.90;60.10
50758;DHT22;36732;47.980;11.652;2024-03-23T08:15:26;12.90;60.20
50758;DHT22;36732;47.980;11.652;2024-03-23T08:17:51;12.90;60.30
50758;DHT22;36732;47.980;11.652;2024-03-23T08:20:17;13.00;60.50
50758;DHT22;36732;47.980;11.652;2024-03-23T08:22:43;13.00;60.60
50758;DHT22;36732;47.980;11.652;2024-03-23T08:25:08;13.00;60.70
50758;DHT22;36732;47.980;11.652;2024-03-23T08:27:34;13.00;60.80
50758;DHT22;36732;47.980;11.652;2024-03-23T08:30:00;13.00;60.80
50758;DHT22;36732;47.980;11.652;2024-03-23T08:32:25;13.00;60.80
50758;DHT22;36732;47.980;11.652;2024-03-23T08:34:51;13.00;60.90
50758;DHT22;36732;47.980;11.652;2024-03-23T08:37:17;13.00;61.00
50758;DHT22;36732;47.980;11.652;2024-03-23T08:39:45;13.00;61.10
50758;DHT22;36732;47.980;11.652;2024-03-23T08:42:11;13.00;61.40
50758;DHT22;36732;47.980;11.652;2024-03-23T08:44:36;13.00;61.60
50758;DHT22;36732;47.980;11.652;2024-03-23T08:47:02;13.00;61.40
50758;DHT22;36732;47.980;11.652;2024-03-23T08:49:28;13.00;61.50
50758;DHT22;36732;47.980;11.652;2024-03-23T08:51:54;13.00;61.70
50758;DHT22;36732;47.980;11.652;2024-03-23T08:54:20;13.00;61.70
50758;DHT22;36732;47.980;11.652;2024-03-23T08:56:47;13.00;61.90
50758;DHT22;36732;47.980;11.652;2024-03-23T08:59:13;13.00;62.10
50758;DHT22;36732;47.980;11.652;2024-03-23T09:01:40;13.00;62.20
50758;DHT22;36732;47.980;11.652;2024-03-23T09:04:05;13.00;62.40
50758;DHT22;36732;47.980;11.652;2024-03-23T09:06:31;12.90;62.60
50758;DHT22;36732;47.980;11.652;2024-03-23T09:08:57;12.90;62.90
50758;DHT22;36732;47.980;11.652;2024-03-23T09:11:22;12.90;62.90
50758;DHT22;36732;47.980;11.652;2024-03-23T09:13:48;12.90;63.20
50758;DHT22;36732;47.980;11.652;2024-03-23T09:16:14;12.90;63.40
50758;DHT22;36732;47.980;11.652;2024-03-23T09:18:40;12.80;63.50
50758;DHT22;36732;47.980;11.652;2024-03-23T09:21:12;12.80;63.30
50758;DHT22;36732;47.980;11.652;2024-03-23T09:23:39;12.80;63.80
50758;DHT22;36732;47.980;11.652;2024-03-23T09:26:05;12.80;63.60
50758;DHT22;36732;47.980;11.652;2024-03-23T09:28:33;12.80;63.60
50758;DHT22;36732;47.980;11.652;2024-03-23T09:31:06;12.70;63.60
50758;DHT22;36732;47.980;11.652;2024-03-23T09:33:33;12.70;63.90
50758;DHT22;36732;47.980;11.652;2024-03-23T09:36:03;12.70;63.70
50758;DHT22;36732;47.980;11.652;2024-03-23T09:38:29;12.70;64.10
50758;DHT22;36732;47.980;11.652;2024-03-23T09:40:56;12.60;64.00
50758;DHT22;36732;47.980;11.652;2024-03-23T09:43:23;12.60;64.20
50758;DHT22;36732;47.980;11.652;2024-03-23T09:45:49;12.60;64.30
50758;DHT22;36732;47.980;11.652;2024-03-23T09:48:15;12.60;64.30
50758;DHT22;36732;47.980;11.652;2024-03-23T09:50:43;12.60;64.30
50758;DHT22;36732;47.980;11.652;2024-03-23T09:53:11;12.60;64.30
50758;DHT22;36732;47.980;11.652;2024-03-23T09:55:38;12.60;64.30
50758;DHT22;36732;47.980;11.652;2024-03-23T09:58:05;12.50;64.20
50758;DHT22;36732;47.980;11.652;2024-03-23T10:00:32;12.50;63.90
50758;DHT22;36732;47.980;11.652;2024-03-23T10:02:59;12.50;63.60
50758;DHT22;36732;47.980;11.652;2024-03-23T10:05:28;12.50;63.20
50758;DHT22;36732;47.980;11.652;2024-03-23T10:07:54;12.50;63.20
50758;DHT22;36732;47.980;11.652;2024-03-23T10:10:21;12.40;63.10
50758;DHT22;36732;47.980;11.652;2024-03-23T10:12:50;12.40;63.10
50758;DHT22;36732;47.980;11.652;2024-03-23T10:15:19;12.40;63.10
50758;DHT22;36732;47.980;11.652;2024-03-23T10:17:46;12.30;63.10
50758;DHT22;36732;47.980;11.652;2024-03-23T10:20:12;12.30;63.10
50758;DHT22;36732;47.980;11.652;2024-03-23T10:22:38;12.30;63.10
50758;DHT22;36732;47.980;11.652;2024-03-23T10:25:08;12.30;63.20
50758;DHT22;36732;47.980;11.652;2024-03-23T10:27:35;12.30;63.30
50758;DHT22;36732;47.980;11.652;2024-03-23T10:30:09;12.30;63.20
50758;DHT22;36732;47.980;11.652;2024-03-23T10:32:37;12.30;63.10
50758;DHT22;36732;47.980;11.652;2024-03-23T10:35:19;12.30;63.10
50758;DHT22;36732;47.980;11.652;2024-03-23T10:37:48;12.20;63.30
50758;DHT22;36732;47.980;11.652;2024-03-23T10:40:18;12.20;63.10
50758;DHT22;36732;47.980;11.652;2024-03-23T10:42:46;12.20;63.10
50758;DHT22;36732;47.980;11.652;2024-03-23T10:45:12;12.20;63.00
50758;DHT22;36732;47.980;11.652;2024-03-23T10:47:38;12.20;63.20
50758;DHT22;36732;47.980;11.652;2024-03-23T10:50:04;12.10;63.00
50758;DHT22;36732;47.980;11.652;2024-03-23T10:52:33;12.10;63.10
50758;DHT22;36732;47.980;11.652;2024-03-23T10:55:02;12.10;63.10
50758;DHT22;36732;47.980;11.652;2024-03-23T10:57:41;12.10;63.10
50758;DHT22;36732;47.980;11.652;2024-03-23T11:00:11;12.10;63.30
50758;DHT22;36732;47.980;11.652;2024-03-23T11:02:37;12.10;63.20
50758;DHT22;36732;47.980;11.652;2024-03-23T11:07:52;12.10;63.40
50758;DHT22;36732;47.980;11.652;2024-03-23T11:12:53;12.00;63.70
50758;DHT22;36732;47.980;11.652;2024-03-23T11:15:19;12.00;63.50
50758;DHT22;36732;47.980;11.652;2024-03-23T11:18:07;12.00;63.40
50758;DHT22;36732;47.980;11.652;2024-03-23T11:20:37;12.00;63.40
50758;DHT22;36732;47.980;11.652;2024-03-23T11:23:04;12.00;63.20
50758;DHT22;36732;47.980;11.652;2024-03-23T11:25:30;12.00;63.20
50758;DHT22;36732;47.980;11.652;2024-03-23T11:28:11;12.00;63.20
50758;DHT22;36732;47.980;11.652;2024-03-23T11:30:37;12.00;63.40
50758;DHT22;36732;47.980;11.652;2024-03-23T11:33:06;12.00;63.20
50758;DHT22;36732;47.980;11.652;2024-03-23T11:35:34;12.00;63.10
50758;DHT22;36732;47.980;11.652;2024-03-23T11:38:15;12.00;63.10
50758;DHT22;36732;47.980;11.652;2024-03-23T11:40:47;12.00;62.60
50758;DHT22;36732;47.980;11.652;2024-03-23T11:43:18;12.00;62.40
50758;DHT22;36732;47.980;11.652;2024-03-23T11:45:47;12.00;62.10
50758;DHT22;36732;47.980;11.652;2024-03-23T11:48:16;12.00;62.10
50758;DHT22;36732;47.980;11.652;2024-03-23T11:50:44;12.00;61.90
50758;DHT22;36732;47.980;11.652;2024-03-23T11:55:54;12.00;61.70
50758;DHT22;36732;47.980;11.652;2024-03-23T11:58:23;12.00;61.30
50758;DHT22;36732;47.980;11.652;2024-03-23T12:03:25;12.00;61.20
50758;DHT22;36732;47.980;11.652;2024-03-23T12:05:54;12.00;61.40
50758;DHT22;36732;47.980;11.652;2024-03-23T12:08:22;12.00;61.40
50758;DHT22;36732;47.980;11.652;2024-03-23T12:10:50;12.00;61.40
50758;DHT22;36732;47.980;11.652;2024-03-23T12:13:29;12.00;61.40
50758;DHT22;36732;47.980;11.652;2024-03-23T12:15:55;12.00;61.50
50758;DHT22;36732;47.980;11.652;2024-03-23T12:18:34;12.00;61.50
50758;DHT22;36732;47.980;11.652;2024-03-23T12:21:00;12.00;61.40
50758;DHT22;36732;47.980;11.652;2024-03-23T12:23:25;12.00;61.50
50758;DHT22;36732;47.980;11.652;2024-03-23T12:25:51;12.00;61.50
50758;DHT22;36732;47.980;11.652;2024-03-23T12:28:17;12.00;61.50
50758;DHT22;36732;47.980;11.652;2024-03-23T12:30:42;12.00;61.70
50758;DHT22;36732;47.980;11.652;2024-03-23T12:33:08;12.00;61.60
50758;DHT22;36732;47.980;11.652;2024-03-23T12:35:34;12.00;61.60
50758;DHT22;36732;47.980;11.652;2024-03-23T12:38:00;12.10;61.70
50758;DHT22;36732;47.980;11.652;2024-03-23T12:40:26;12.10;61.70
50758;DHT22;36732;47.980;11.652;2024-03-23T12:42:53;12.10;61.80
50758;DHT22;36732;47.980;11.652;2024-03-23T12:45:19;12.10;61.90
50758;DHT22;36732;47.980;11.652;2024-03-23T12:47:45;12.10;62.00
50758;DHT22;36732;47.980;11.652;2024-03-23T12:50:11;12.10;62.10
50758;DHT22;36732;47.980;11.652;2024-03-23T12:52:37;12.10;62.00
50758;DHT22;36732;47.980;11.652;2024-03-23T12:55:03;12.10;61.70
50758;DHT22;36732;47.980;11.652;2024-03-23T12:57:32;12.20;61.60
50758;DHT22;36732;47.980;11.652;2024-03-23T12:59:58;12.20;61.30
50758;DHT22;36732;47.980;11.652;2024-03-23T13:02:24;12.20;60.90
50758;DHT22;36732;47.980;11.652;2024-03-23T13:04:50;12.20;60.90
50758;DHT22;36732;47.980;11.652;2024-03-23T13:07:18;12.20;61.00
50758;DHT22;36732;47.980;11.652;2024-03-23T13:09:44;12.20;61.20
50758;DHT22;36732;47.980;11.652;2024-03-23T13:12:10;12.20;61.20
50758;DHT22;36732;47.980;11.652;2024-03-23T13:14:37;12.20;61.20
50758;DHT22;36732;47.980;11.652;2024-03-23T13:17:06;12.20;61.40
50758;DHT22;36732;47.980;11.652;2024-03-23T13:19:33;12.20;61.50
50758;DHT22;36732;47.980;11.652;2024-03-23T13:22:00;12.20;61.60
50758;DHT22;36732;47.980;11.652;2024-03-23T13:24:26;12.20;61.70
50758;DHT22;36732;47.980;11.652;2024-03-23T13:26:54;12.20;61.80
50758;DHT22;36732;47.980;11.652;2024-03-23T13:29:21;12.20;61.90
50758;DHT22;36732;47.980;11.652;2024-03-23T13:31:47;12.20;62.00
50758;DHT22;36732;47.980;11.652;2024-03-23T13:34:14;12.20;62.00
50758;DHT22;36732;47.980;11.652;2024-03-23T13:36:41;12.20;62.00
50758;DHT22;36732;47.980;11.652;2024-03-23T13:39:07;12.20;62.10
50758;DHT22;36732;47.980;11.652;2024-03-23T13:41:48;12.20;62.20
50758;DHT22;36732;47.980;11.652;2024-03-23T13:44:14;12.20;62.10
50758;DHT22;36732;47.980;11.652;2024-03-23T13:46:41;12.20;62.00
50758;DHT22;36732;47.980;11.652;2024-03-23T13:49:26;12.20;61.90
50758;DHT22;36732;47.980;11.652;2024-03-23T13:51:56;12.20;61.70
50758;DHT22;36732;47.980;11.652;2024-03-23T13:54:26;12.20;61.50
50758;DHT22;36732;47.980;11.652;2024-03-23T13:56:53;12.20;61.40
50758;DHT22;36732;47.980;11.652;2024-03-23T13:59:22;12.20;61.10
50758;DHT22;36732;47.980;11.652;2024-03-23T14:01:48;12.20;60.90
50758;DHT22;36732;47.980;11.652;2024-03-23T14:04:15;12.20;60.70
50758;DHT22;36732;47.980;11.652;2024-03-23T14:06:45;12.10;60.30
50758;DHT22;36732;47.980;11.652;2024-03-23T14:09:12;12.10;60.20
50758;DHT22;36732;47.980;11.652;2024-03-23T14:11:39;12.10;60.00
50758;DHT22;36732;47.980;11.652;2024-03-23T14:14:06;12.10;59.90
50758;DHT22;36732;47.980;11.652;2024-03-23T14:16:33;12.10;59.90
50758;DHT22;36732;47.980;11.652;2024-03-23T14:18:59;12.00;59.60
50758;DHT22;36732;47.980;11.652;2024-03-23T14:21:25;12.00;59.10
50758;DHT22;36732;47.980;11.652;2024-03-23T14:23:51;12.00;59.00
50758;DHT22;36732;47.980;11.652;2024-03-23T14:26:17;12.00;58.80
50758;DHT22;36732;47.980;11.652;2024-03-23T14:28:42;12.00;58.70
50758;DHT22;36732;47.980;11.652;2024-03-23T14:31:08;12.00;58.70
50758;DHT22;36732;47.980;11.652;2024-03-23T14:33:38;11.90;58.80
50758;DHT22;36732;47.980;11.652;2024-03-23T14:36:10;11.90;58.30
50758;DHT22;36732;47.980;11.652;2024-03-23T14:38:36;11.80;57.70
50758;DHT22;36732;47.980;11.652;2024-03-23T14:41:03;11.80;57.40
50758;DHT22;36732;47.980;11.652;2024-03-23T14:43:29;11.70;57.30
50758;DHT22;36732;47.980;11.652;2024-03-23T14:46:12;11.70;57.20
50758;DHT22;36732;47.980;11.652;2024-03-23T14:48:40;11.50;56.70
50758;DHT22;36732;47.980;11.652;2024-03-23T14:51:07;11.50;57.20
50758;DHT22;36732;47.980;11.652;2024-03-23T14:53:38;11.40;57.10
50758;DHT22;36732;47.980;11.652;2024-03-23T14:56:06;11.40;57.70
50758;DHT22;36732;47.980;11.652;2024-03-23T14:58:33;11.30;58.70
50758;DHT22;36732;47.980;11.652;2024-03-23T15:01:02;11.30;58.70
50758;DHT22;36732;47.980;11.652;2024-03-23T15:03:36;11.20;58.70
50758;DHT22;36732;47.980;11.652;2024-03-23T15:06:04;11.20;58.80
50758;DHT22;36732;47.980;11.652;2024-03-23T15:08:30;11.20;59.00
50758;DHT22;36732;47.980;11.652;2024-03-23T15:10:59;11.10;59.10
50758;DHT22;36732;47.980;11.652;2024-03-23T15:13:25;11.10;59.40
50758;DHT22;36732;47.980;11.652;2024-03-23T15:15:51;11.10;59.50
50758;DHT22;36732;47.980;11.652;2024-03-23T15:18:17;11.10;59.60
50758;DHT22;36732;47.980;11.652;2024-03-23T15:20:57;11.00;59.50
50758;DHT22;36732;47.980;11.652;2024-03-23T15:23:28;11.00;59.70
50758;DHT22;36732;47.980;11.652;2024-03-23T15:25:55;11.00;59.60
50758;DHT22;36732;47.980;11.652;2024-03-23T15:28:25;11.00;59.50
50758;DHT22;36732;47.980;11.652;2024-03-23T15:31:07;10.90;59.60
50758;DHT22;36732;47.980;11.652;2024-03-23T15:33:35;10.90;59.60
50758;DHT22;36732;47.980;11.652;2024-03-23T15:36:04;10.90;59.60
50758;DHT22;36732;47.980;11.652;2024-03-23T15:38:34;10.90;59.90
50758;DHT22;36732;47.980;11.652;2024-03-23T15:41:00;10.90;59.90
50758;DHT22;36732;47.980;11.652;2024-03-23T15:43:26;10.90;59.90
50758;DHT22;36732;47.980;11.652;2024-03-23T15:46:02;10.90;60.00
50758;DHT22;36732;47.980;11.652;2024-03-23T15:48:30;10.80;59.80
50758;DHT22;36732;47.980;11.652;2024-03-23T15:50:57;10.90;60.00
50758;DHT22;36732;47.980;11.652;2024-03-23T15:53:25;10.80;59.90
50758;DHT22;36732;47.980;11.652;2024-03-23T15:55:54;10.80;59.90
50758;DHT22;36732;47.980;11.652;2024-03-23T15:58:23;10.80;60.10
50758;DHT22;36732;47.980;11.652;2024-03-23T16:01:08;10.80;60.20
50758;DHT22;36732;47.980;11.652;2024-03-23T16:03:35;10.80;60.20
50758;DHT22;36732;47.980;11.652;2024-03-23T16:06:04;10.80;60.40
50758;DHT22;36732;47.980;11.652;2024-03-23T16:08:31;10.80;60.40
50758;DHT22;36732;47.980;11.652;2024-03-23T16:11:01;10.80;60.60
50758;DHT22;36732;47.980;11.652;2024-03-23T16:13:28;10.80;60.60
50758;DHT22;36732;47.980;11.652;2024-03-23T16:16:04;10.80;60.60
50758;DHT22;36732;47.980;11.652;2024-03-23T16:18:33;10.80;61.00
50758;DHT22;36732;47.980;11.652;2024-03-23T16:21:01;10.80;61.00